<?xml version='1.0' encoding='UTF-8'?>
<gpx xmlns="http://www.topografix.com/GPX/1/1" creator="www.balnam.be" version="1.1" xmlns:xsi="http://www.w3.org/2001/XMLSchema-instance" xsi:schemaLocation="http://www.topografix.com/GPX/1/1 http://www.topografix.com/GPX/1/1/gpx.xsd">
<trk>
<name>bollm1</name>
<cmt>v</cmt>
<desc>Limelette Chemin n°1 Vieux Chemin de Bruxelles</desc>
<link href="https://chemins.be/limelette/chemin/1"/><trkseg>
<trkpt lat="50.682877" lon="4.597032"><time>2026-05-08T03:48:27Z</time></trkpt>
<trkpt lat="50.681619" lon="4.596319"><time>2026-05-08T03:58:27Z</time></trkpt>
<trkpt lat="50.681741" lon="4.593815"><time>2026-05-08T04:08:27Z</time></trkpt>
<trkpt lat="50.682131" lon="4.592345"><time>2026-05-08T04:18:27Z</time></trkpt>
</trkseg></trk>
<trk>
<name>bollm1</name>
<cmt>r</cmt>
<desc>Limelette Chemin n°1 Vieux Chemin de Bruxelles</desc>
<link href="https://chemins.be/limelette/chemin/1"/><trkseg>
<trkpt lat="50.682131" lon="4.592345"><time>2026-05-08T04:18:27Z</time></trkpt>
<trkpt lat="50.684049" lon="4.585774"><time>2026-05-08T04:28:27Z</time></trkpt>
<trkpt lat="50.684652" lon="4.585352"><time>2026-05-08T04:38:27Z</time></trkpt>
<trkpt lat="50.684557" lon="4.583272"><time>2026-05-08T04:48:27Z</time></trkpt>
<trkpt lat="50.684047" lon="4.581656"><time>2026-05-08T04:58:27Z</time></trkpt>
<trkpt lat="50.684076" lon="4.580623"><time>2026-05-08T05:08:27Z</time></trkpt>
<trkpt lat="50.684491" lon="4.579861"><time>2026-05-08T05:18:27Z</time></trkpt>
<trkpt lat="50.685736" lon="4.577574"><time>2026-05-08T05:28:27Z</time></trkpt>
<trkpt lat="50.685496" lon="4.576215"><time>2026-05-08T05:38:27Z</time></trkpt>
<trkpt lat="50.684464" lon="4.570294"><time>2026-05-08T05:48:27Z</time></trkpt>
<trkpt lat="50.684967" lon="4.569367"><time>2026-05-08T05:58:27Z</time></trkpt>
<trkpt lat="50.684466" lon="4.568470"><time>2026-05-08T06:08:27Z</time></trkpt>
<trkpt lat="50.684248" lon="4.564408"><time>2026-05-08T06:18:27Z</time></trkpt>
<trkpt lat="50.682887" lon="4.561416"><time>2026-05-08T06:28:27Z</time></trkpt>
<trkpt lat="50.683499" lon="4.560485"><time>2026-05-08T06:38:27Z</time></trkpt>
</trkseg></trk>
<trk>
<name>bollm1</name>
<cmt>s</cmt>
<desc>Limelette Chemin n°1 Vieux Chemin de Bruxelles</desc>
<link href="https://chemins.be/limelette/chemin/1"/><trkseg>
<trkpt lat="50.683499" lon="4.560485"><time>2026-05-08T06:38:27Z</time></trkpt>
<trkpt lat="50.683869" lon="4.559920"><time>2026-05-08T06:48:27Z</time></trkpt>
<trkpt lat="50.684186" lon="4.558903"><time>2026-05-08T06:58:27Z</time></trkpt>
<trkpt lat="50.684342" lon="4.556979"><time>2026-05-08T07:08:27Z</time></trkpt>
<trkpt lat="50.684372" lon="4.555026"><time>2026-05-08T07:18:27Z</time></trkpt>
</trkseg></trk>
<trk>
<name>bollm1</name>
<cmt>r</cmt>
<desc>Limelette Chemin n°1 Vieux Chemin de Bruxelles</desc>
<link href="https://chemins.be/limelette/chemin/1"/><trkseg>
<trkpt lat="50.684372" lon="4.555026"><time>2026-05-08T07:18:27Z</time></trkpt>
<trkpt lat="50.686202" lon="4.551751"><time>2026-05-08T07:28:27Z</time></trkpt>
<trkpt lat="50.686729" lon="4.548172"><time>2026-05-08T07:38:27Z</time></trkpt>
<trkpt lat="50.687509" lon="4.544345"><time>2026-05-08T07:48:27Z</time></trkpt>
<trkpt lat="50.687737" lon="4.544140"><time>2026-05-08T07:58:27Z</time></trkpt>
<trkpt lat="50.687914" lon="4.544148"><time>2026-05-08T08:08:27Z</time></trkpt>
<trkpt lat="50.688281" lon="4.544456"><time>2026-05-08T08:18:27Z</time></trkpt>
</trkseg></trk>
<trk>
<name>bollm1</name>
<cmt>v</cmt>
<desc>Limelette Chemin n°1 Vieux Chemin de Bruxelles</desc>
<link href="https://chemins.be/limelette/chemin/1"/><trkseg>
<trkpt lat="50.688281" lon="4.544456"><time>2026-05-08T08:18:27Z</time></trkpt>
<trkpt lat="50.688313" lon="4.544619"><time>2026-05-08T08:28:27Z</time></trkpt>
<trkpt lat="50.688414" lon="4.544704"><time>2026-05-08T08:38:27Z</time></trkpt>
<trkpt lat="50.688713" lon="4.544357"><time>2026-05-08T08:48:27Z</time></trkpt>
<trkpt lat="50.688696" lon="4.544260"><time>2026-05-08T08:58:27Z</time></trkpt>
</trkseg></trk>
<trk>
<name>bollm1</name>
<cmt>r</cmt>
<desc>Limelette Chemin n°1 Vieux Chemin de Bruxelles</desc>
<link href="https://chemins.be/limelette/chemin/1"/><trkseg>
<trkpt lat="50.688696" lon="4.544260"><time>2026-05-08T08:58:27Z</time></trkpt>
<trkpt lat="50.688767" lon="4.543994"><time>2026-05-08T09:08:27Z</time></trkpt>
<trkpt lat="50.688642" lon="4.542883"><time>2026-05-08T09:18:27Z</time></trkpt>
<trkpt lat="50.688698" lon="4.542180"><time>2026-05-08T09:28:27Z</time></trkpt>
<trkpt lat="50.689366" lon="4.539861"><time>2026-05-08T09:38:27Z</time></trkpt>
<trkpt lat="50.690081" lon="4.536920"><time>2026-05-08T09:48:27Z</time></trkpt>
<trkpt lat="50.690917" lon="4.537135"><time>2026-05-08T09:58:27Z</time></trkpt>
<trkpt lat="50.692003" lon="4.538073"><time>2026-05-08T10:08:27Z</time></trkpt>
<trkpt lat="50.692193" lon="4.537550"><time>2026-05-08T10:18:27Z</time></trkpt>
<trkpt lat="50.692149" lon="4.536517"><time>2026-05-08T10:28:27Z</time></trkpt>
</trkseg></trk>
<trk>
<name>bollm1</name>
<cmt>v</cmt>
<desc>Limelette Chemin n°1 Vieux Chemin de Bruxelles</desc>
<link href="https://chemins.be/limelette/chemin/1"/><trkseg>
<trkpt lat="50.692149" lon="4.536517"><time>2026-05-08T10:28:27Z</time></trkpt>
<trkpt lat="50.691992" lon="4.535773"><time>2026-05-08T10:38:27Z</time></trkpt>
<trkpt lat="50.692340" lon="4.534876"><time>2026-05-08T10:48:27Z</time></trkpt>
<trkpt lat="50.693005" lon="4.533600"><time>2026-05-08T10:58:27Z</time></trkpt>
<trkpt lat="50.693792" lon="4.532036"><time>2026-05-08T11:08:27Z</time></trkpt>
</trkseg>
</trk>
</gpx>